sensor_id;sensor_type;location;lat;lon;timestamp;temperature;humidity
24144;DHT22;12307;50.828;6.080;2023-07-31T00:01:55;21.80;79.30
24144;DHT22;12307;50.828;6.080;2023-07-31T00:04:21;21.80;79.40
24144;DHT22;12307;50.828;6.080;2023-07-31T00:06:47;21.80;79.30
24144;DHT22;12307;50.828;6.080;2023-07-31T00:09:12;21.80;79.30
24144;DHT22;12307;50.828;6.080;2023-07-31T00:11:38;21.80;79.40
24144;DHT22;12307;50.828;6.080;2023-07-31T00:14:05;21.80;79.40
24144;DHT22;12307;50.828;6.080;2023-07-31T00:16:31;21.80;79.40
24144;DHT22;12307;50.828;6.080;2023-07-31T00:18:56;21.80;79.40
24144;DHT22;12307;50.828;6.080;2023-07-31T00:21:22;21.80;79.40
24144;DHT22;12307;50.828;6.080;2023-07-31T00:23:48;21.80;79.40
24144;DHT22;12307;50.828;6.080;2023-07-31T00:26:14;21.80;79.40
24144;DHT22;12307;50.828;6.080;2023-07-31T00:28:39;21.80;79.40
24144;DHT22;12307;50.828;6.080;2023-07-31T00:31:06;21.80;79.40
24144;DHT22;12307;50.828;6.080;2023-07-31T00:33:34;21.80;79.40
24144;DHT22;12307;50.828;6.080;2023-07-31T00:35:59;21.80;79.40
24144;DHT22;12307;50.828;6.080;2023-07-31T00:38:25;21.80;79.40
24144;DHT22;12307;50.828;6.080;2023-07-31T00:40:51;21.80;79.40
24144;DHT22;12307;50.828;6.080;2023-07-31T00:43:17;21.80;79.40
24144;DHT22;12307;50.828;6.080;2023-07-31T00:45:42;21.80;79.40
24144;DHT22;12307;50.828;6.080;2023-07-31T00:48:09;21.80;79.50
24144;DHT22;12307;50.828;6.080;2023-07-31T00:50:35;21.80;79.40
24144;DHT22;12307;50.828;6.080;2023-07-31T00:53:01;21.80;79.50
24144;DHT22;12307;50.828;6.080;2023-07-31T00:55:27;21.80;79.50
24144;DHT22;12307;50.828;6.080;2023-07-31T00:57:53;21.80;79.50
24144;DHT22;12307;50.828;6.080;2023-07-31T01:00:21;21.80;79.50
24144;DHT22;12307;50.828;6.080;2023-07-31T01:02:47;21.80;79.50
24144;DHT22;12307;50.828;6.080;2023-07-31T01:05:15;21.80;79.60
24144;DHT22;12307;50.828;6.080;2023-07-31T01:07:47;21.80;79.50
24144;DHT22;12307;50.828;6.080;2023-07-31T01:10:17;21.80;79.60
24144;DHT22;12307;50.828;6.080;2023-07-31T01:12:45;21.80;79.60
24144;DHT22;12307;50.828;6.080;2023-07-31T01:15:12;21.80;80.30
24144;DHT22;12307;50.828;6.080;2023-07-31T01:17:39;21.80;79.60
24144;DHT22;12307;50.828;6.080;2023-07-31T01:20:10;21.80;79.60
24144;DHT22;12307;50.828;6.080;2023-07-31T01:23:19;21.80;79.60
24144;DHT22;12307;50.828;6.080;2023-07-31T01:26:01;21.80;79.60
24144;DHT22;12307;50.828;6.080;2023-07-31T01:28:33;21.80;79.60
24144;DHT22;12307;50.828;6.080;2023-07-31T01:31:05;21.80;79.60
24144;DHT22;12307;50.828;6.080;2023-07-31T01:33:33;21.80;79.60
24144;DHT22;12307;50.828;6.080;2023-07-31T01:35:59;21.80;79.60
24144;DHT22;12307;50.828;6.080;2023-07-31T01:38:25;21.70;79.50
24144;DHT22;12307;50.828;6.080;2023-07-31T01:40:51;21.80;79.60
24144;DHT22;12307;50.828;6.080;2023-07-31T01:43:19;21.80;79.60
24144;DHT22;12307;50.828;6.080;2023-07-31T01:45:45;21.70;79.60
24144;DHT22;12307;50.828;6.080;2023-07-31T01:48:11;21.80;79.60
24144;DHT22;12307;50.828;6.080;2023-07-31T01:50:36;21.80;79.60
24144;DHT22;12307;50.828;6.080;2023-07-31T01:53:02;21.70;79.60
24144;DHT22;12307;50.828;6.080;2023-07-31T01:55:28;21.70;79.60
24144;DHT22;12307;50.828;6.080;2023-07-31T01:57:53;21.70;79.60
24144;DHT22;12307;50.828;6.080;2023-07-31T02:00:20;21.70;79.60
24144;DHT22;12307;50.828;6.080;2023-07-31T02:02:46;21.70;79.60
24144;DHT22;12307;50.828;6.080;2023-07-31T02:05:12;21.70;79.60
24144;DHT22;12307;50.828;6.080;2023-07-31T02:07:38;21.70;79.60
24144;DHT22;12307;50.828;6.080;2023-07-31T02:10:04;21.70;79.60
24144;DHT22;12307;50.828;6.080;2023-07-31T02:12:30;21.70;79.60
24144;DHT22;12307;50.828;6.080;2023-07-31T02:14:59;21.80;79.60
24144;DHT22;12307;50.828;6.080;2023-07-31T02:17:26;21.70;79.60
24144;DHT22;12307;50.828;6.080;2023-07-31T02:19:52;21.70;79.60
24144;DHT22;12307;50.828;6.080;2023-07-31T02:22:18;21.70;79.60
24144;DHT22;12307;50.828;6.080;2023-07-31T02:24:43;21.80;79.60
24144;DHT22;12307;50.828;6.080;2023-07-31T02:27:09;21.70;79.50
24144;DHT22;12307;50.828;6.080;2023-07-31T02:29:35;21.70;79.50
24144;DHT22;12307;50.828;6.080;2023-07-31T02:32:00;21.70;79.60
24144;DHT22;12307;50.828;6.080;2023-07-31T02:34:27;21.80;79.60
24144;DHT22;12307;50.828;6.080;2023-07-31T02:36:53;21.80;79.60
24144;DHT22;12307;50.828;6.080;2023-07-31T02:39:19;21.70;79.50
24144;DHT22;12307;50.828;6.080;2023-07-31T02:41:45;21.70;79.50
24144;DHT22;12307;50.828;6.080;2023-07-31T02:44:10;21.70;79.50
24144;DHT22;12307;50.828;6.080;2023-07-31T02:46:39;21.80;79.60
24144;DHT22;12307;50.828;6.080;2023-07-31T02:49:04;21.80;79.60
24144;DHT22;12307;50.828;6.080;2023-07-31T02:51:31;21.80;79.60
24144;DHT22;12307;50.828;6.080;2023-07-31T02:53:57;21.80;79.60
24144;DHT22;12307;50.828;6.080;2023-07-31T02:56:23;21.70;79.40
24144;DHT22;12307;50.828;6.080;2023-07-31T02:58:49;21.80;79.60
24144;DHT22;12307;50.828;6.080;2023-07-31T03:01:14;21.70;79.50
24144;DHT22;12307;50.828;6.080;2023-07-31T03:03:41;21.80;79.60
24144;DHT22;12307;50.828;6.080;2023-07-31T03:06:07;21.70;79.50
24144;DHT22;12307;50.828;6.080;2023-07-31T03:08:34;21.80;79.60
24144;DHT22;12307;50.828;6.080;2023-07-31T03:11:00;21.70;79.50
24144;DHT22;12307;50.828;6.080;2023-07-31T03:13:25;21.70;79.50
24144;DHT22;12307;50.828;6.080;2023-07-31T03:15:51;21.70;79.50
24144;DHT22;12307;50.828;6.080;2023-07-31T03:18:17;21.80;79.60
24144;DHT22;12307;50.828;6.080;2023-07-31T03:20:42;21.70;79.40
24144;DHT22;12307;50.828;6.080;2023-07-31T03:23:09;21.80;79.60
24144;DHT22;12307;50.828;6.080;2023-07-31T03:25:36;21.70;79.40
24144;DHT22;12307;50.828;6.080;2023-07-31T03:28:02;21.70;79.50
24144;DHT22;12307;50.828;6.080;2023-07-31T03:30:28;21.70;79.50
24144;DHT22;12307;50.828;6.080;2023-07-31T03:32:53;21.70;79.50
24144;DHT22;12307;50.828;6.080;2023-07-31T03:35:19;21.70;79.50
24144;DHT22;12307;50.828;6.080;2023-07-31T03:37:45;21.70;79.40
24144;DHT22;12307;50.828;6.080;2023-07-31T03:40:11;21.70;79.40
24144;DHT22;12307;50.828;6.080;2023-07-31T03:42:38;21.70;79.40
24144;DHT22;12307;50.828;6.080;2023-07-31T03:45:05;21.80;79.50
24144;DHT22;12307;50.828;6.080;2023-07-31T03:47:31;21.70;79.40
24144;DHT22;12307;50.828;6.080;2023-07-31T03:49:57;21.70;79.40
24144;DHT22;12307;50.828;6.080;2023-07-31T03:52:22;21.70;79.40
24144;DHT22;12307;50.828;6.080;2023-07-31T03:54:48;21.70;79.40
24144;DHT22;12307;50.828;6.080;2023-07-31T03:57:14;21.70;79.40
24144;DHT22;12307;50.828;6.080;2023-07-31T03:59:41;21.70;79.40
24144;DHT22;12307;50.828;6.080;2023-07-31T04:02:07;21.80;79.50
24144;DHT22;12307;50.828;6.080;2023-07-31T04:04:32;21.70;79.40
24144;DHT22;12307;50.828;6.080;2023-07-31T04:06:58;21.70;79.40
24144;DHT22;12307;50.828;6.080;2023-07-31T04:09:24;21.70;79.50
24144;DHT22;12307;50.828;6.080;2023-07-31T04:11:49;21.70;79.40
24144;DHT22;12307;50.828;6.080;2023-07-31T04:14:15;21.70;79.40
24144;DHT22;12307;50.828;6.080;2023-07-31T04:16:42;21.70;79.40
24144;DHT22;12307;50.828;6.080;2023-07-31T04:19:08;21.70;79.50
24144;DHT22;12307;50.828;6.080;2023-07-31T04:21:34;21.70;79.40
24144;DHT22;12307;50.828;6.080;2023-07-31T04:24:00;21.70;79.40
24144;DHT22;12307;50.828;6.080;2023-07-31T04:26:25;21.70;79.40
24144;DHT22;12307;50.828;6.080;2023-07-31T04:28:51;21.70;79.40
24144;DHT22;12307;50.828;6.080;2023-07-31T04:31:16;21.80;79.50
24144;DHT22;12307;50.828;6.080;2023-07-31T04:33:44;21.70;79.40
24144;DHT22;12307;50.828;6.080;2023-07-31T04:36:09;21.70;79.40
24144;DHT22;12307;50.828;6.080;2023-07-31T04:38:35;21.80;79.40
24144;DHT22;12307;50.828;6.080;2023-07-31T04:41:01;21.80;79.40
24144;DHT22;12307;50.828;6.080;2023-07-31T04:43:27;21.70;79.40
24144;DHT22;12307;50.828;6.080;2023-07-31T04:45:52;21.70;79.40
24144;DHT22;12307;50.828;6.080;2023-07-31T04:48:19;21.70;79.40
24144;DHT22;12307;50.828;6.080;2023-07-31T04:50:46;21.80;79.40
24144;DHT22;12307;50.828;6.080;2023-07-31T04:53:12;21.80;79.40
24144;DHT22;12307;50.828;6.080;2023-07-31T04:55:38;21.70;79.40
24144;DHT22;12307;50.828;6.080;2023-07-31T04:58:03;21.70;79.40
24144;DHT22;12307;50.828;6.080;2023-07-31T05:00:29;21.80;79.40
24144;DHT22;12307;50.828;6.080;2023-07-31T05:02:55;21.80;79.40
24144;DHT22;12307;50.828;6.080;2023-07-31T05:05:21;21.80;79.40
24144;DHT22;12307;50.828;6.080;2023-07-31T05:07:48;21.80;79.40
24144;DHT22;12307;50.828;6.080;2023-07-31T05:10:14;21.80;79.40
24144;DHT22;12307;50.828;6.080;2023-07-31T05:12:39;21.80;79.40
24144;DHT22;12307;50.828;6.080;2023-07-31T05:15:06;21.80;79.30
24144;DHT22;12307;50.828;6.080;2023-07-31T05:17:32;21.80;79.30
24144;DHT22;12307;50.828;6.080;2023-07-31T05:19:58;21.70;79.30
24144;DHT22;12307;50.828;6.080;2023-07-31T05:22:23;21.80;79.30
24144;DHT22;12307;50.828;6.080;2023-07-31T05:24:50;21.80;79.30
24144;DHT22;12307;50.828;6.080;2023-07-31T05:27:16;21.80;79.30
24144;DHT22;12307;50.828;6.080;2023-07-31T05:29:44;21.80;79.30
24144;DHT22;12307;50.828;6.080;2023-07-31T05:32:09;21.80;79.30
24144;DHT22;12307;50.828;6.080;2023-07-31T05:34:35;21.80;79.30
24144;DHT22;12307;50.828;6.080;2023-07-31T05:37:01;21.80;79.40
24144;DHT22;12307;50.828;6.080;2023-07-31T05:39:27;21.80;79.30
24144;DHT22;12307;50.828;6.080;2023-07-31T05:41:54;21.80;79.30
24144;DHT22;12307;50.828;6.080;2023-07-31T05:44:20;21.80;79.30
24144;DHT22;12307;50.828;6.080;2023-07-31T05:46:45;21.80;79.30
24144;DHT22;12307;50.828;6.080;2023-07-31T05:49:11;21.80;79.30
24144;DHT22;12307;50.828;6.080;2023-07-31T05:51:37;21.80;79.40
24144;DHT22;12307;50.828;6.080;2023-07-31T05:54:02;21.80;79.40
24144;DHT22;12307;50.828;6.080;2023-07-31T05:56:28;21.80;79.30
24144;DHT22;12307;50.828;6.080;2023-07-31T05:58:55;21.80;79.40
24144;DHT22;12307;50.828;6.080;2023-07-31T06:01:22;21.80;79.30
24144;DHT22;12307;50.828;6.080;2023-07-31T06:03:48;21.80;79.40
24144;DHT22;12307;50.828;6.080;2023-07-31T06:06:14;21.80;79.30
24144;DHT22;12307;50.828;6.080;2023-07-31T06:08:40;21.80;79.30
24144;DHT22;12307;50.828;6.080;2023-07-31T06:11:06;21.80;79.30
24144;DHT22;12307;50.828;6.080;2023-07-31T06:13:32;21.80;79.30
24144;DHT22;12307;50.828;6.080;2023-07-31T06:16:00;21.80;79.30
24144;DHT22;12307;50.828;6.080;2023-07-31T06:18:30;21.80;79.30
24144;DHT22;12307;50.828;6.080;2023-07-31T06:20:56;21.80;79.30
24144;DHT22;12307;50.828;6.080;2023-07-31T06:23:22;21.80;79.30
24144;DHT22;12307;50.828;6.080;2023-07-31T06:25:47;21.90;79.30
24144;DHT22;12307;50.828;6.080;2023-07-31T06:28:13;21.90;79.20
24144;DHT22;12307;50.828;6.080;2023-07-31T06:30:39;21.90;79.20
24144;DHT22;12307;50.828;6.080;2023-07-31T06:33:06;21.90;79.20
24144;DHT22;12307;50.828;6.080;2023-07-31T06:35:33;21.90;79.10
24144;DHT22;12307;50.828;6.080;2023-07-31T06:37:59;21.90;79.10
24144;DHT22;12307;50.828;6.080;2023-07-31T06:40:25;21.90;79.10
24144;DHT22;12307;50.828;6.080;2023-07-31T06:42:50;21.90;79.10
24144;DHT22;12307;50.828;6.080;2023-07-31T06:45:16;21.90;79.10
24144;DHT22;12307;50.828;6.080;2023-07-31T06:47:42;21.90;79.10
24144;DHT22;12307;50.828;6.080;2023-07-31T06:50:10;21.90;79.10
24144;DHT22;12307;50.828;6.080;2023-07-31T06:52:35;21.90;79.00
24144;DHT22;12307;50.828;6.080;2023-07-31T06:55:02;21.90;79.00
24144;DHT22;12307;50.828;6.080;2023-07-31T06:57:29;21.90;79.00
24144;DHT22;12307;50.828;6.080;2023-07-31T06:59:54;21.90;79.00
24144;DHT22;12307;50.828;6.080;2023-07-31T07:02:20;21.90;78.90
24144;DHT22;12307;50.828;6.080;2023-07-31T07:04:46;22.00;79.10
24144;DHT22;12307;50.828;6.080;2023-07-31T07:07:13;22.00;79.00
24144;DHT22;12307;50.828;6.080;2023-07-31T07:09:39;22.00;79.00
24144;DHT22;12307;50.828;6.080;2023-07-31T07:12:05;22.00;78.90
24144;DHT22;12307;50.828;6.080;2023-07-31T07:14:31;22.00;79.00
24144;DHT22;12307;50.828;6.080;2023-07-31T07:16:57;22.00;78.90
24144;DHT22;12307;50.828;6.080;2023-07-31T07:19:23;22.00;78.90
24144;DHT22;12307;50.828;6.080;2023-07-31T07:21:48;22.00;78.90
24144;DHT22;12307;50.828;6.080;2023-07-31T07:24:15;22.00;79.00
24144;DHT22;12307;50.828;6.080;2023-07-31T07:26:41;22.00;79.00
24144;DHT22;12307;50.828;6.080;2023-07-31T07:29:07;22.00;78.90
24144;DHT22;12307;50.828;6.080;2023-07-31T07:31:33;22.00;78.90
24144;DHT22;12307;50.828;6.080;2023-07-31T07:33:59;22.00;78.90
24144;DHT22;12307;50.828;6.080;2023-07-31T07:36:24;22.00;78.90
24144;DHT22;12307;50.828;6.080;2023-07-31T07:38:50;22.00;79.00
24144;DHT22;12307;50.828;6.080;2023-07-31T07:41:17;22.00;78.90
24144;DHT22;12307;50.828;6.080;2023-07-31T07:43:43;22.00;78.90
24144;DHT22;12307;50.828;6.080;2023-07-31T07:46:09;22.00;79.00
24144;DHT22;12307;50.828;6.080;2023-07-31T07:48:34;22.00;78.90
24144;DHT22;12307;50.828;6.080;2023-07-31T07:51:00;22.00;79.00
24144;DHT22;12307;50.828;6.080;2023-07-31T07:53:26;22.00;78.90
24144;DHT22;12307;50.828;6.080;2023-07-31T07:55:52;22.00;79.00
24144;DHT22;12307;50.828;6.080;2023-07-31T07:58:19;22.00;78.90
24144;DHT22;12307;50.828;6.080;2023-07-31T08:00:48;22.10;79.00
24144;DHT22;12307;50.828;6.080;2023-07-31T08:03:14;22.10;79.00
24144;DHT22;12307;50.828;6.080;2023-07-31T08:05:40;22.10;78.90
24144;DHT22;12307;50.828;6.080;2023-07-31T08:08:06;22.10;78.90
24144;DHT22;12307;50.828;6.080;2023-07-31T08:10:32;22.10;78.90
24144;DHT22;12307;50.828;6.080;2023-07-31T08:12:58;22.10;78.80
24144;DHT22;12307;50.828;6.080;2023-07-31T08:15:25;22.20;78.80
24144;DHT22;12307;50.828;6.080;2023-07-31T08:17:50;22.20;78.70
24144;DHT22;12307;50.828;6.080;2023-07-31T08:20:16;22.20;78.60
24144;DHT22;12307;50.828;6.080;2023-07-31T08:22:42;22.30;78.60
24144;DHT22;12307;50.828;6.080;2023-07-31T08:25:08;22.30;78.60
24144;DHT22;12307;50.828;6.080;2023-07-31T08:27:34;22.30;78.50
24144;DHT22;12307;50.828;6.080;2023-07-31T08:29:59;22.30;78.50
24144;DHT22;12307;50.828;6.080;2023-07-31T08:32:26;22.30;78.50
24144;DHT22;12307;50.828;6.080;2023-07-31T08:34:52;22.30;78.50
24144;DHT22;12307;50.828;6.080;2023-07-31T08:37:18;22.30;78.50
24144;DHT22;12307;50.828;6.080;2023-07-31T08:39:43;22.30;78.50
24144;DHT22;12307;50.828;6.080;2023-07-31T08:42:09;22.20;78.40
24144;DHT22;12307;50.828;6.080;2023-07-31T08:44:35;22.20;78.40
24144;DHT22;12307;50.828;6.080;2023-07-31T08:47:02;22.30;78.40
24144;DHT22;12307;50.828;6.080;2023-07-31T08:49:30;22.30;78.40
24144;DHT22;12307;50.828;6.080;2023-07-31T08:51:57;22.30;78.40
24144;DHT22;12307;50.828;6.080;2023-07-31T08:54:23;22.30;78.40
24144;DHT22;12307;50.828;6.080;2023-07-31T08:56:50;22.30;78.40
24144;DHT22;12307;50.828;6.080;2023-07-31T08:59:17;22.30;78.40
24144;DHT22;12307;50.828;6.080;2023-07-31T09:01:48;22.30;78.40
24144;DHT22;12307;50.828;6.080;2023-07-31T09:04:16;22.30;78.40
24144;DHT22;12307;50.828;6.080;2023-07-31T09:06:44;22.30;78.30
24144;DHT22;12307;50.828;6.080;2023-07-31T09:09:10;22.30;78.30
24144;DHT22;12307;50.828;6.080;2023-07-31T09:11:35;22.30;78.30
24144;DHT22;12307;50.828;6.080;2023-07-31T09:14:02;22.40;78.30
24144;DHT22;12307;50.828;6.080;2023-07-31T09:16:34;22.40;78.30
24144;DHT22;12307;50.828;6.080;2023-07-31T09:19:00;22.40;78.30
24144;DHT22;12307;50.828;6.080;2023-07-31T09:21:30;22.40;78.20
24144;DHT22;12307;50.828;6.080;2023-07-31T09:23:57;22.40;78.20
24144;DHT22;12307;50.828;6.080;2023-07-31T09:26:30;22.40;78.30
24144;DHT22;12307;50.828;6.080;2023-07-31T09:28:56;22.40;78.40
24144;DHT22;12307;50.828;6.080;2023-07-31T09:31:32;22.40;78.40
24144;DHT22;12307;50.828;6.080;2023-07-31T09:33:57;22.30;78.40
24144;DHT22;12307;50.828;6.080;2023-07-31T09:36:23;22.40;78.40
24144;DHT22;12307;50.828;6.080;2023-07-31T09:38:49;22.30;78.40
24144;DHT22;12307;50.828;6.080;2023-07-31T09:41:16;22.30;79.20
24144;DHT22;12307;50.828;6.080;2023-07-31T09:43:53;22.30;78.50
24144;DHT22;12307;50.828;6.080;2023-07-31T09:46:20;22.30;78.50
24144;DHT22;12307;50.828;6.080;2023-07-31T09:48:47;22.30;78.60
24144;DHT22;12307;50.828;6.080;2023-07-31T09:51:13;22.30;78.60
24144;DHT22;12307;50.828;6.080;2023-07-31T09:53:38;22.30;78.70
24144;DHT22;12307;50.828;6.080;2023-07-31T09:56:05;22.30;78.70
24144;DHT22;12307;50.828;6.080;2023-07-31T09:58:34;22.30;78.80
24144;DHT22;12307;50.828;6.080;2023-07-31T10:01:02;22.40;79.10
24144;DHT22;12307;50.828;6.080;2023-07-31T10:03:29;22.40;79.30
24144;DHT22;12307;50.828;6.080;2023-07-31T10:05:57;22.40;79.30
24144;DHT22;12307;50.828;6.080;2023-07-31T10:08:27;22.40;79.40
24144;DHT22;12307;50.828;6.080;2023-07-31T10:10:59;22.50;79.50
24144;DHT22;12307;50.828;6.080;2023-07-31T10:13:27;22.50;79.40
24144;DHT22;12307;50.828;6.080;2023-07-31T10:15:58;22.50;79.40
24144;DHT22;12307;50.828;6.080;2023-07-31T10:18:24;22.50;79.50
24144;DHT22;12307;50.828;6.080;2023-07-31T10:20:51;22.40;79.50
24144;DHT22;12307;50.828;6.080;2023-07-31T10:23:18;22.40;79.50
24144;DHT22;12307;50.828;6.080;2023-07-31T10:25:44;22.40;79.70
24144;DHT22;12307;50.828;6.080;2023-07-31T10:28:11;22.40;79.80
24144;DHT22;12307;50.828;6.080;2023-07-31T10:30:38;22.40;79.80
24144;DHT22;12307;50.828;6.080;2023-07-31T10:33:06;22.40;80.00
24144;DHT22;12307;50.828;6.080;2023-07-31T10:35:33;22.40;80.00
24144;DHT22;12307;50.828;6.080;2023-07-31T10:38:09;22.40;80.00
24144;DHT22;12307;50.828;6.080;2023-07-31T10:40:36;22.40;80.10
24144;DHT22;12307;50.828;6.080;2023-07-31T10:43:01;22.40;80.10
24144;DHT22;12307;50.828;6.080;2023-07-31T10:45:33;22.40;80.10
24144;DHT22;12307;50.828;6.080;2023-07-31T10:48:03;22.30;80.10
24144;DHT22;12307;50.828;6.080;2023-07-31T10:50:31;22.30;80.20
24144;DHT22;12307;50.828;6.080;2023-07-31T10:53:00;22.30;80.20
24144;DHT22;12307;50.828;6.080;2023-07-31T10:55:31;22.40;80.20
24144;DHT22;12307;50.828;6.080;2023-07-31T10:58:04;22.40;80.10
24144;DHT22;12307;50.828;6.080;2023-07-31T11:00:31;22.40;80.10
24144;DHT22;12307;50.828;6.080;2023-07-31T11:03:02;22.50;80.20
24144;DHT22;12307;50.828;6.080;2023-07-31T11:05:53;22.50;80.20
24144;DHT22;12307;50.828;6.080;2023-07-31T11:08:26;22.50;80.20
24144;DHT22;12307;50.828;6.080;2023-07-31T11:11:05;22.50;80.30
24144;DHT22;12307;50.828;6.080;2023-07-31T11:13:33;22.50;80.30
24144;DHT22;12307;50.828;6.080;2023-07-31T11:15:59;22.50;80.30
24144;DHT22;12307;50.828;6.080;2023-07-31T11:18:26;22.50;80.30
24144;DHT22;12307;50.828;6.080;2023-07-31T11:20:54;22.50;80.30
24144;DHT22;12307;50.828;6.080;2023-07-31T11:23:21;22.40;80.20
24144;DHT22;12307;50.828;6.080;2023-07-31T11:25:47;22.40;80.30
24144;DHT22;12307;50.828;6.080;2023-07-31T11:28:14;22.40;80.20
24144;DHT22;12307;50.828;6.080;2023-07-31T11:30:42;22.40;80.30
24144;DHT22;12307;50.828;6.080;2023-07-31T11:33:09;22.40;80.30
24144;DHT22;12307;50.828;6.080;2023-07-31T11:35:36;22.40;80.30
24144;DHT22;12307;50.828;6.080;2023-07-31T11:38:08;22.40;80.40
24144;DHT22;12307;50.828;6.080;2023-07-31T11:40:41;22.40;80.30
24144;DHT22;12307;50.828;6.080;2023-07-31T11:43:07;22.40;80.20
24144;DHT22;12307;50.828;6.080;2023-07-31T11:45:33;22.40;80.20
24144;DHT22;12307;50.828;6.080;2023-07-31T11:48:01;22.40;80.20
24144;DHT22;12307;50.828;6.080;2023-07-31T11:50:27;22.40;80.20
24144;DHT22;12307;50.828;6.080;2023-07-31T11:52:57;22.30;81.00
24144;DHT22;12307;50.828;6.080;2023-07-31T11:55:26;22.30;80.20
24144;DHT22;12307;50.828;6.080;2023-07-31T11:57:55;22.30;80.20
24144;DHT22;12307;50.828;6.080;2023-07-31T12:00:22;22.30;80.20
24144;DHT22;12307;50.828;6.080;2023-07-31T12:02:48;22.30;80.00
24144;DHT22;12307;50.828;6.080;2023-07-31T12:05:14;22.30;79.80
24144;DHT22;12307;50.828;6.080;2023-07-31T12:07:44;22.20;79.20
24144;DHT22;12307;50.828;6.080;2023-07-31T12:10:10;22.10;78.50
24144;DHT22;12307;50.828;6.080;2023-07-31T12:12:37;22.10;77.90
24144;DHT22;12307;50.828;6.080;2023-07-31T12:15:14;22.00;77.40
24144;DHT22;12307;50.828;6.080;2023-07-31T12:17:40;21.90;77.00
24144;DHT22;12307;50.828;6.080;2023-07-31T12:20:06;21.80;76.70
24144;DHT22;12307;50.828;6.080;2023-07-31T12:22:32;21.80;76.70
24144;DHT22;12307;50.828;6.080;2023-07-31T12:24:58;21.70;76.50
24144;DHT22;12307;50.828;6.080;2023-07-31T12:27:24;21.60;76.60
24144;DHT22;12307;50.828;6.080;2023-07-31T12:29:53;21.60;76.70
24144;DHT22;12307;50.828;6.080;2023-07-31T12:32:20;21.50;76.40
24144;DHT22;12307;50.828;6.080;2023-07-31T12:34:46;21.50;76.40
24144;DHT22;12307;50.828;6.080;2023-07-31T12:37:12;21.40;76.30
24144;DHT22;12307;50.828;6.080;2023-07-31T12:39:37;21.40;76.30
24144;DHT22;12307;50.828;6.080;2023-07-31T12:42:04;21.30;76.30
24144;DHT22;12307;50.828;6.080;2023-07-31T12:44:30;21.30;76.30
24144;DHT22;12307;50.828;6.080;2023-07-31T12:46:57;21.30;76.30
24144;DHT22;12307;50.828;6.080;2023-07-31T12:49:23;21.30;76.40
24144;DHT22;12307;50.828;6.080;2023-07-31T12:51:48;21.30;76.40
24144;DHT22;12307;50.828;6.080;2023-07-31T12:54:14;21.30;76.60
24144;DHT22;12307;50.828;6.080;2023-07-31T12:56:40;21.40;76.80
24144;DHT22;12307;50.828;6.080;2023-07-31T12:59:05;21.40;77.20
24144;DHT22;12307;50.828;6.080;2023-07-31T13:01:31;21.50;77.60
24144;DHT22;12307;50.828;6.080;2023-07-31T13:03:59;21.60;78.00
24144;DHT22;12307;50.828;6.080;2023-07-31T13:06:25;21.70;78.40
24144;DHT22;12307;50.828;6.080;2023-07-31T13:08:50;21.70;78.60
24144;DHT22;12307;50.828;6.080;2023-07-31T13:11:16;21.80;78.70
24144;DHT22;12307;50.828;6.080;2023-07-31T13:13:42;21.80;78.70
24144;DHT22;12307;50.828;6.080;2023-07-31T13:16:08;21.90;78.80
24144;DHT22;12307;50.828;6.080;2023-07-31T13:18:34;21.90;78.80
24144;DHT22;12307;50.828;6.080;2023-07-31T13:21:01;21.90;78.80
24144;DHT22;12307;50.828;6.080;2023-07-31T13:23:26;22.00;78.80
24144;DHT22;12307;50.828;6.080;2023-07-31T13:25:52;22.00;78.70
24144;DHT22;12307;50.828;6.080;2023-07-31T13:28:18;22.00;78.60
24144;DHT22;12307;50.828;6.080;2023-07-31T13:30:43;22.00;78.60
24144;DHT22;12307;50.828;6.080;2023-07-31T13:33:09;22.00;78.50
24144;DHT22;12307;50.828;6.080;2023-07-31T13:35:35;22.00;78.50
24144;DHT22;12307;50.828;6.080;2023-07-31T13:38:02;22.00;78.50
24144;DHT22;12307;50.828;6.080;2023-07-31T13:40:28;22.00;78.50
24144;DHT22;12307;50.828;6.080;2023-07-31T13:42:53;22.00;78.40
24144;DHT22;12307;50.828;6.080;2023-07-31T13:45:20;22.00;78.30
24144;DHT22;12307;50.828;6.080;2023-07-31T13:47:45;22.00;78.20
24144;DHT22;12307;50.828;6.080;2023-07-31T13:50:11;22.00;78.10
24144;DHT22;12307;50.828;6.080;2023-07-31T13:52:37;22.00;77.90
24144;DHT22;12307;50.828;6.080;2023-07-31T13:55:05;22.00;77.60
24144;DHT22;12307;50.828;6.080;2023-07-31T13:57:31;22.00;77.40
24144;DHT22;12307;50.828;6.080;2023-07-31T13:59:57;22.00;77.20
24144;DHT22;12307;50.828;6.080;2023-07-31T14:02:22;22.00;76.90
24144;DHT22;12307;50.828;6.080;2023-07-31T14:04:48;22.00;76.70
24144;DHT22;12307;50.828;6.080;2023-07-31T14:07:14;22.00;76.50
24144;DHT22;12307;50.828;6.080;2023-07-31T14:09:39;21.90;76.30
24144;DHT22;12307;50.828;6.080;2023-07-31T14:12:07;21.90;76.00
24144;DHT22;12307;50.828;6.080;2023-07-31T14:14:33;21.90;75.90
24144;DHT22;12307;50.828;6.080;2023-07-31T14:16:59;21.90;75.90
24144;DHT22;12307;50.828;6.080;2023-07-31T14:19:25;21.90;75.80
24144;DHT22;12307;50.828;6.080;2023-07-31T14:21:50;21.90;76.60
24144;DHT22;12307;50.828;6.080;2023-07-31T14:24:16;21.90;75.70
24144;DHT22;12307;50.828;6.080;2023-07-31T14:26:42;21.90;75.70
24144;DHT22;12307;50.828;6.080;2023-07-31T14:29:09;21.90;75.70
24144;DHT22;12307;50.828;6.080;2023-07-31T14:31:36;21.80;75.50
24144;DHT22;12307;50.828;6.080;2023-07-31T14:34:02;21.90;75.60
24144;DHT22;12307;50.828;6.080;2023-07-31T14:36:30;21.80;75.50
24144;DHT22;12307;50.828;6.080;2023-07-31T14:38:56;21.80;75.60
24144;DHT22;12307;50.828;6.080;2023-07-31T14:41:21;21.90;75.70
24144;DHT22;12307;50.828;6.080;2023-07-31T14:43:47;21.90;76.60
24144;DHT22;12307;50.828;6.080;2023-07-31T14:46:14;22.00;75.90
24144;DHT22;12307;50.828;6.080;2023-07-31T14:48:40;22.10;76.00
24144;DHT22;12307;50.828;6.080;2023-07-31T14:51:06;22.10;76.10
24144;DHT22;12307;50.828;6.080;2023-07-31T14:53:31;22.10;76.20
24144;DHT22;12307;50.828;6.080;2023-07-31T14:55:57;22.20;76.30
24144;DHT22;12307;50.828;6.080;2023-07-31T14:58:23;22.30;76.50
24144;DHT22;12307;50.828;6.080;2023-07-31T15:00:49;22.30;76.60
24144;DHT22;12307;50.828;6.080;2023-07-31T15:03:16;22.30;76.70
24144;DHT22;12307;50.828;6.080;2023-07-31T15:05:42;22.40;76.90
24144;DHT22;12307;50.828;6.080;2023-07-31T15:08:08;22.40;76.90
24144;DHT22;12307;50.828;6.080;2023-07-31T15:10:37;22.50;77.10
24144;DHT22;12307;50.828;6.080;2023-07-31T15:13:02;22.50;77.20
24144;DHT22;12307;50.828;6.080;2023-07-31T15:15:28;22.50;77.40
24144;DHT22;12307;50.828;6.080;2023-07-31T15:17:54;22.50;77.40
24144;DHT22;12307;50.828;6.080;2023-07-31T15:20:22;22.50;77.50
24144;DHT22;12307;50.828;6.080;2023-07-31T15:22:47;22.60;78.40
24144;DHT22;12307;50.828;6.080;2023-07-31T15:25:14;22.60;77.70
24144;DHT22;12307;50.828;6.080;2023-07-31T15:27:39;22.60;77.80